logo
Search for airport 
image banner adimage banner adimage banner ad
image banner ad

YDRI - Durrie

Located in Birdsville, Australia

ICAO - YDRI, IATA - DRR

Data provided by Airmate  

General information

Coordinates: S25°41'8" E140°13'40"
Elevation is 190 feet MSL.
Magnetic variation is 7° East
View others Airports in Queensland

Operational data

Special qualification required
Current time UTC:
Current local time:
Weather at : - ( 0 km )
METAR: CYLH 141642Z AUTO 01004KT 280V030 9SM -RA FEW009 SCT026 BKN049 20/18 A2971 RMK LTNG DIST NE SE S PCPN 0.5MM PAST HR SLP065 DENSITY ALT 1900FT
View NOTAMs / SUP AIP / TFR affecting this airport [VIEW]
Communications frequencies: [VIEW]

Runways:

RWY identifierQFULength (ft)Width (ft)SurfaceLDA (ft)
1731160C
3531160C
18191°353961DIRT
0011°353961DIRT
22229°231856DIRT
0449°231856DIRT

Airport contact information

Address: Birdsville Australia

Satellite view of YDRI